SBOSBO NBO / HKJK
Speedbird OnlineSpeedbird Online NBO / HKJK

Jomo Kenyatta International Airport
02:07 16.9°C

Location Nairobi, Kenya
Latitude: -1.31923997402
Longitude: 36.9277992249
Web Airport Website | Wikipedia
Altitude 1625 Meter / 5330 Feet
Distance 6,816 KM / 4,235 Miles
from London.
Time Zone UTC +3 hours (Africa/Nairobi)
Codes IATA: NBO
ICAO: HKJK
Currency £1 equals KES 151.36
Runways
RunwayLength (m)Surface
064117Asphalt
244117Asphalt
Radio
TypeDescriptionFrequency
APPAPP122.3
ATISATIS126.2
RMPAPRON CTL121.6
TWRNairobi Tower118.7
Live ATC
METAR HKJK 081430Z 06015KT 9999 SCT029 27/11 Q1017 NOSIG
TAF TAF HKJK 081100Z 0812/0918 06015KT 9999 SCT029 BECMG 0818/0821 03005KT CAVOK BECMG 0907/0910 06015KT 9999 SCT029
Weather As Of 09 Feb 2023 02:06
Description Broken clouds
Wind 12 km/h from North-East (33°)
Cloud Cover 82%
Precipitation Rain: none, Snow: none
Sunrise 06:41
Sunset 18:51
Lounges TAV Lounge, International Departures
Kenya Airways Pride Lounge, T1A
Swissport Aspire Lounge, Terminal 1B
Rotations During the last 90 days there were
81 flights from LHR
80 flights to LHR



Support Speedbird Online

© 2017-2023 Speedbird Online